Time,TemperatureF,DewpointF,PressureIn,WindDirection,WindDirectionDegrees,WindSpeedMPH,WindSpeedGustMPH,Humidity,HourlyPrecipIn,Conditions,Clouds,dailyrainin,SoftwareType,DateUTC
2013-01-03 00:00:00,12.2,7.8,30.24,ESE,120,0.0,2.0,82,0.00,,---,0.00,VWS V14.01,2013-01-03 06:00:00,
2013-01-03 00:03:00,11.9,7.7,30.24,West,263,0.0,1.0,83,0.00,,---,0.00,VWS V14.01,2013-01-03 06:03:00,
2013-01-03 00:08:00,11.7,7.6,30.24,SSW,212,0.0,1.0,83,0.00,,---,0.00,VWS V14.01,2013-01-03 06:08:00,
2013-01-03 00:13:00,11.6,7.4,30.24,SSW,204,0.0,1.0,83,0.00,,---,0.00,VWS V14.01,2013-01-03 06:13:00,
2013-01-03 00:18:00,11.5,7.3,30.24,SSW,205,0.0,1.0,83,0.00,,---,0.00,VWS V14.01,2013-01-03 06:18:00,
2013-01-03 00:23:00,11.2,7.1,30.24,SSW,206,0.0,1.0,83,0.00,,---,0.00,VWS V14.01,2013-01-03 06:23:00,
2013-01-03 00:28:00,10.6,6.2,30.24,SSW,204,0.0,1.0,82,0.00,,---,0.00,VWS V14.01,2013-01-03 06:28:00,
2013-01-03 00:30:00,10.6,6.2,30.24,SSW,204,0.0,1.0,82,0.00,,---,0.00,VWS V14.01,2013-01-03 06:30:00,
2013-01-03 00:33:00,10.2,6.1,30.24,SSW,205,0.0,0.0,83,0.00,,---,0.00,VWS V14.01,2013-01-03 06:33:00,
2013-01-03 00:38:00,9.8,5.9,30.24,SSW,205,0.0,0.0,84,0.00,,---,0.00,VWS V14.01,2013-01-03 06:38:00,
2013-01-03 00:43:00,9.7,6.1,30.24,SSW,205,0.0,0.0,85,0.00,,---,0.00,VWS V14.01,2013-01-03 06:43:00,
2013-01-03 00:48:00,9.4,5.8,30.24,SSW,205,0.0,0.0,85,0.00,,---,0.00,VWS V14.01,2013-01-03 06:48:00,
2013-01-03 00:53:00,9.4,6.1,30.24,SSW,205,0.0,0.0,86,0.00,,---,0.00,VWS V14.01,2013-01-03 06:53:00,
2013-01-03 00:58:00,9.5,6.2,30.24,SSW,205,0.0,0.0,86,0.00,,---,0.00,VWS V14.01,2013-01-03 06:58:00,
2013-01-03 01:00:00,9.6,6.3,30.24,SSW,206,0.0,0.0,86,0.00,,---,0.00,VWS V14.01,2013-01-03 07:00:00,
2013-01-03 01:03:00,9.6,6.3,30.24,SSW,205,0.0,0.0,86,0.00,,---,0.00,VWS V14.01,2013-01-03 07:03:00,
2013-01-03 01:08:00,9.3,5.7,30.24,SSW,205,0.0,0.0,85,0.00,,---,0.00,VWS V14.01,2013-01-03 07:08:00,
2013-01-03 01:13:00,8.9,5.3,30.24,SSW,205,0.0,0.0,85,0.00,,---,0.00,VWS V14.01,2013-01-03 07:13:00,
2013-01-03 01:18:00,8.6,5.3,30.24,SSW,205,0.0,0.0,86,0.00,,---,0.00,VWS V14.01,2013-01-03 07:18:00,
2013-01-03 01:23:00,8.5,5.2,30.24,SSW,205,0.0,0.0,86,0.00,,---,0.00,VWS V14.01,2013-01-03 07:23:00,
2013-01-03 01:28:00,8.4,5.1,30.24,SSW,205,0.0,0.0,86,0.00,,---,0.00,VWS V14.01,2013-01-03 07:28:00,
2013-01-03 01:30:00,8.4,5.1,30.24,SSW,204,0.0,0.0,86,0.00,,---,0.00,VWS V14.01,2013-01-03 07:30:00,
2013-01-03 01:33:00,8.5,5.4,30.24,SSW,206,0.0,0.0,87,0.00,,---,0.00,VWS V14.01,2013-01-03 07:33:00,
2013-01-03 01:38:00,8.2,4.9,30.24,SSW,205,0.0,0.0,86,0.00,,---,0.00,VWS V14.01,2013-01-03 07:38:00,
2013-01-03 01:43:00,7.7,4.4,30.24,SSW,205,0.0,0.0,86,0.00,,---,0.00,VWS V14.01,2013-01-03 07:43:00,
2013-01-03 01:48:00,7.5,4.4,30.24,SSW,205,0.0,0.0,87,0.00,,---,0.00,VWS V14.01,2013-01-03 07:48:00,
2013-01-03 01:53:00,7.6,4.8,30.24,SSW,205,0.0,0.0,88,0.00,,---,0.00,VWS V14.01,2013-01-03 07:53:00,
2013-01-03 01:58:00,8.0,5.2,30.24,ESE,111,0.0,1.0,88,0.00,,---,0.00,VWS V14.01,2013-01-03 07:58:00,
2013-01-03 02:00:00,8.1,5.3,30.24,ESE,112,0.0,1.0,88,0.00,,---,0.00,VWS V14.01,2013-01-03 08:00:00,
2013-01-03 02:03:00,8.2,5.4,30.24,ESE,111,0.0,0.0,88,0.00,,---,0.00,VWS V14.01,2013-01-03 08:03:00,
2013-01-03 02:08:00,8.2,5.1,30.24,SSW,195,0.0,2.0,87,0.00,,---,0.00,VWS V14.01,2013-01-03 08:08:00,
2013-01-03 02:13:00,8.1,5.0,30.24,SSE,150,0.0,2.0,87,0.00,,---,0.00,VWS V14.01,2013-01-03 08:13:00,
2013-01-03 02:18:00,8.2,5.1,30.23,SSE,150,0.0,2.0,87,0.00,,---,0.00,VWS V14.01,2013-01-03 08:18:00,
2013-01-03 02:23:00,8.4,5.3,30.23,SW,221,0.0,2.0,87,0.00,,---,0.00,VWS V14.01,2013-01-03 08:23:00,
2013-01-03 02:28:00,8.6,5.5,30.23,SW,229,0.0,2.0,87,0.00,,---,0.00,VWS V14.01,2013-01-03 08:28:00,
2013-01-03 02:30:00,8.6,5.5,30.23,WNW,284,0.0,2.0,87,0.00,,---,0.00,VWS V14.01,2013-01-03 08:30:00,
2013-01-03 02:33:00,9.2,5.9,30.23,SW,221,1.0,1.0,86,0.00,,---,0.00,VWS V14.01,2013-01-03 08:33:00,
2013-01-03 02:38:00,9.5,5.7,30.23,SW,231,0.0,1.0,84,0.00,,---,0.00,VWS V14.01,2013-01-03 08:38:00,
2013-01-03 02:43:00,9.4,5.3,30.23,WSW,258,0.0,1.0,83,0.00,,---,0.00,VWS V14.01,2013-01-03 08:43:00,
2013-01-03 02:48:00,9.4,5.3,30.23,WSW,257,0.0,1.0,83,0.00,,---,0.00,VWS V14.01,2013-01-03 08:48:00,
2013-01-03 02:53:00,9.3,5.4,30.23,WSW,257,0.0,1.0,84,0.00,,---,0.00,VWS V14.01,2013-01-03 08:53:00,
2013-01-03 02:58:00,9.3,5.2,30.23,WSW,258,0.0,1.0,83,0.00,,---,0.00,VWS V14.01,2013-01-03 08:58:00,
2013-01-03 03:00:00,9.2,5.1,30.23,WSW,257,0.0,1.0,83,0.00,,---,0.00,VWS V14.01,2013-01-03 09:00:00,
2013-01-03 03:03:00,8.9,4.8,30.23,WSW,257,0.0,0.0,83,0.00,,---,0.00,VWS V14.01,2013-01-03 09:03:00,
2013-01-03 03:08:00,8.5,4.4,30.23,WSW,257,0.0,0.0,83,0.00,,---,0.00,VWS V14.01,2013-01-03 09:08:00,
2013-01-03 03:13:00,8.0,3.9,30.23,WSW,257,0.0,0.0,83,0.00,,---,0.00,VWS V14.01,2013-01-03 09:13:00,
2013-01-03 03:18:00,7.5,3.4,30.23,WSW,257,0.0,0.0,83,0.00,,---,0.00,VWS V14.01,2013-01-03 09:18:00,
2013-01-03 03:23:00,6.9,2.8,30.23,WSW,257,0.0,0.0,83,0.00,,---,0.00,VWS V14.01,2013-01-03 09:23:00,
2013-01-03 03:28:00,6.8,3.3,30.22,WSW,257,0.0,0.0,85,0.00,,---,0.00,VWS V14.01,2013-01-03 09:28:00,
2013-01-03 03:30:00,6.7,3.2,30.22,WSW,258,0.0,0.0,85,0.00,,---,0.00,VWS V14.01,2013-01-03 09:30:00,
2013-01-03 03:33:00,6.5,3.0,30.22,WSW,257,0.0,0.0,85,0.00,,---,0.00,VWS V14.01,2013-01-03 09:33:00,
2013-01-03 03:38:00,5.9,2.4,30.22,WSW,257,0.0,0.0,85,0.00,,---,0.00,VWS V14.01,2013-01-03 09:38:00,
2013-01-03 03:43:00,5.6,2.3,30.22,WSW,257,0.0,0.0,86,0.00,,---,0.00,VWS V14.01,2013-01-03 09:43:00,
2013-01-03 03:48:00,5.7,2.7,30.21,WSW,257,0.0,0.0,87,0.00,,---,0.00,VWS V14.01,2013-01-03 09:48:00,
2013-01-03 03:53:00,5.9,3.1,30.21,WSW,257,0.0,0.0,88,0.00,,---,0.00,VWS V14.01,2013-01-03 09:53:00,
2013-01-03 03:58:00,6.0,3.2,30.21,WSW,257,0.0,0.0,88,0.00,,---,0.00,VWS V14.01,2013-01-03 09:58:00,
2013-01-03 04:00:00,6.1,3.3,30.21,WSW,257,0.0,0.0,88,0.00,,---,0.00,VWS V14.01,2013-01-03 10:00:00,
2013-01-03 04:03:00,6.8,4.5,30.22,WSW,238,0.0,1.0,90,0.00,,---,0.00,VWS V14.01,2013-01-03 10:03:00,
2013-01-03 04:08:00,7.4,4.8,30.21,SSW,205,0.0,1.0,89,0.00,,---,0.00,VWS V14.01,2013-01-03 10:08:00,
2013-01-03 04:13:00,7.5,4.4,30.21,SSW,205,0.0,1.0,87,0.00,,---,0.00,VWS V14.01,2013-01-03 10:13:00,
2013-01-03 04:18:00,7.4,4.3,30.21,SSW,205,0.0,1.0,87,0.00,,---,0.00,VWS V14.01,2013-01-03 10:18:00,
2013-01-03 04:23:00,7.4,4.3,30.21,SSW,205,0.0,1.0,87,0.00,,---,0.00,VWS V14.01,2013-01-03 10:23:00,
2013-01-03 04:28:00,7.7,4.7,30.21,South,172,0.0,2.0,87,0.00,,---,0.00,VWS V14.01,2013-01-03 10:28:00,
2013-01-03 04:30:00,7.8,4.7,30.21,South,172,0.0,2.0,87,0.00,,---,0.00,VWS V14.01,2013-01-03 10:30:00,
2013-01-03 04:33:00,8.1,4.8,30.21,WSW,245,0.0,1.0,86,0.00,,---,0.00,VWS V14.01,2013-01-03 10:33:00,
2013-01-03 04:38:00,8.5,4.9,30.21,SW,224,0.0,1.0,85,0.00,,---,0.00,VWS V14.01,2013-01-03 10:38:00,
2013-01-03 04:43:00,8.6,5.0,30.21,SW,224,0.0,1.0,85,0.00,,---,0.00,VWS V14.01,2013-01-03 10:43:00,
2013-01-03 04:48:00,8.5,4.7,30.20,SW,224,0.0,1.0,84,0.00,,---,0.00,VWS V14.01,2013-01-03 10:48:00,
2013-01-03 04:53:00,8.5,4.7,30.20,SW,216,0.0,1.0,84,0.00,,---,0.00,VWS V14.01,2013-01-03 10:53:00,
2013-01-03 04:58:00,8.9,5.3,30.20,WSW,250,0.0,1.0,85,0.00,,---,0.00,VWS V14.01,2013-01-03 10:58:00,
2013-01-03 05:00:00,8.9,5.3,30.20,WSW,250,0.0,1.0,85,0.00,,---,0.00,VWS V14.01,2013-01-03 11:00:00,
2013-01-03 05:03:00,9.2,5.4,30.20,WSW,250,0.0,1.0,84,0.00,,---,0.00,VWS V14.01,2013-01-03 11:03:00,
2013-01-03 05:08:00,9.6,5.8,30.20,SW,227,0.0,2.0,84,0.00,,---,0.00,VWS V14.01,2013-01-03 11:08:00,
2013-01-03 05:13:00,10.4,6.3,30.20,SW,235,0.0,2.0,83,0.00,,---,0.00,VWS V14.01,2013-01-03 11:13:00,
2013-01-03 05:18:00,11.1,6.7,30.20,WSW,242,0.0,3.0,82,0.00,,---,0.00,VWS V14.01,2013-01-03 11:18:00,
2013-01-03 05:23:00,11.6,6.9,30.20,SW,235,3.0,5.0,81,0.00,,---,0.00,VWS V14.01,2013-01-03 11:23:00,
2013-01-03 05:28:00,12.1,6.8,30.20,SW,219,1.0,5.0,79,0.00,,---,0.00,VWS V14.01,2013-01-03 11:28:00,
2013-01-03 05:30:00,12.1,6.8,30.20,SSW,210,1.0,5.0,79,0.00,,---,0.00,VWS V14.01,2013-01-03 11:30:00,
2013-01-03 05:33:00,12.4,7.1,30.20,SW,231,2.0,2.0,79,0.00,,---,0.00,VWS V14.01,2013-01-03 11:33:00,
2013-01-03 05:38:00,12.9,7.3,30.20,SSW,203,2.0,4.0,78,0.00,,---,0.00,VWS V14.01,2013-01-03 11:38:00,
2013-01-03 05:43:00,13.3,7.4,30.20,SW,227,1.0,4.0,77,0.00,,---,0.00,VWS V14.01,2013-01-03 11:43:00,
2013-01-03 05:48:00,13.6,7.7,30.20,SSW,212,2.0,4.0,77,0.00,,---,0.00,VWS V14.01,2013-01-03 11:48:00,
2013-01-03 05:53:00,13.9,7.8,30.20,SW,235,0.0,4.0,76,0.00,,---,0.00,VWS V14.01,2013-01-03 11:53:00,
2013-01-03 05:58:00,14.2,8.0,30.20,SW,221,1.0,4.0,76,0.00,,---,0.00,VWS V14.01,2013-01-03 11:58:00,
2013-01-03 06:00:00,14.3,8.1,30.20,SSW,199,1.0,4.0,76,0.00,,---,0.00,VWS V14.01,2013-01-03 12:00:00,
2013-01-03 06:03:00,14.6,8.1,30.19,SW,236,1.0,4.0,75,0.00,,---,0.00,VWS V14.01,2013-01-03 12:03:00,
2013-01-03 06:08:00,14.9,8.4,30.20,SW,222,2.0,4.0,75,0.00,,---,0.00,VWS V14.01,2013-01-03 12:08:00,
2013-01-03 06:13:00,15.3,8.5,30.20,SW,225,3.0,5.0,74,0.00,,---,0.00,VWS V14.01,2013-01-03 12:13:00,
2013-01-03 06:18:00,15.8,8.7,30.20,WSW,248,3.0,6.0,73,0.00,,---,0.00,VWS V14.01,2013-01-03 12:18:00,
2013-01-03 06:23:00,16.1,9.0,30.20,SW,222,2.0,6.0,73,0.00,,---,0.00,VWS V14.01,2013-01-03 12:23:00,
2013-01-03 06:28:00,16.5,9.1,30.19,WSW,240,3.0,7.0,72,0.00,,---,0.00,VWS V14.01,2013-01-03 12:28:00,
2013-01-03 06:30:00,16.6,9.2,30.19,WSW,255,2.0,7.0,72,0.00,,---,0.00,VWS V14.01,2013-01-03 12:30:00,
2013-01-03 06:33:00,16.9,9.1,30.18,WSW,240,5.0,6.0,71,0.00,,---,0.00,VWS V14.01,2013-01-03 12:33:00,
2013-01-03 06:38:00,17.1,9.3,30.19,SW,227,3.0,6.0,71,0.00,,---,0.00,VWS V14.01,2013-01-03 12:38:00,
2013-01-03 06:43:00,17.3,9.2,30.19,South,190,7.0,10.0,70,0.00,,---,0.00,VWS V14.01,2013-01-03 12:43:00,
2013-01-03 06:48:00,17.4,9.3,30.19,South,186,4.0,10.0,70,0.00,,---,0.00,VWS V14.01,2013-01-03 12:48:00,
2013-01-03 06:53:00,17.5,9.4,30.19,West,277,0.0,10.0,70,0.00,,---,0.00,VWS V14.01,2013-01-03 12:53:00,
2013-01-03 06:58:00,17.6,9.5,30.19,WNW,283,2.0,10.0,70,0.00,,---,0.00,VWS V14.01,2013-01-03 12:58:00,
2013-01-03 07:00:00,17.6,9.5,30.19,SW,226,3.0,10.0,70,0.00,,---,0.00,VWS V14.01,2013-01-03 13:00:00,
2013-01-03 07:03:00,17.6,9.5,30.19,WSW,255,3.0,4.0,70,0.00,,---,0.00,VWS V14.01,2013-01-03 13:03:00,
2013-01-03 07:08:00,17.7,9.6,30.19,SW,235,3.0,5.0,70,0.00,,---,0.00,VWS V14.01,2013-01-03 13:08:00,
2013-01-03 07:13:00,17.8,10.0,30.19,SW,227,5.0,5.0,71,0.00,,---,0.00,VWS V14.01,2013-01-03 13:13:00,
2013-01-03 07:18:00,17.9,9.8,30.19,WSW,255,2.0,11.0,70,0.00,,---,0.00,VWS V14.01,2013-01-03 13:18:00,
2013-01-03 07:23:00,18.0,9.9,30.19,WSW,253,3.0,11.0,70,0.00,,---,0.00,VWS V14.01,2013-01-03 13:23:00,
2013-01-03 07:28:00,18.0,9.9,30.19,SW,226,5.0,11.0,70,0.00,,---,0.00,VWS V14.01,2013-01-03 13:28:00,
2013-01-03 07:30:00,18.0,9.9,30.19,WSW,249,4.0,11.0,70,0.00,,---,0.00,VWS V14.01,2013-01-03 13:30:00,
2013-01-03 07:33:00,18.1,10.3,30.19,SW,235,4.0,8.0,71,0.00,,---,0.00,VWS V14.01,2013-01-03 13:33:00,
2013-01-03 07:38:00,18.1,10.3,30.19,West,259,2.0,8.0,71,0.00,,---,0.00,VWS V14.01,2013-01-03 13:38:00,
2013-01-03 07:43:00,18.2,10.4,30.19,West,266,1.0,8.0,71,0.00,,---,0.00,VWS V14.01,2013-01-03 13:43:00,
2013-01-03 07:48:00,18.2,10.4,30.19,WSW,245,3.0,8.0,71,0.00,,---,0.00,VWS V14.01,2013-01-03 13:48:00,
2013-01-03 07:53:00,18.3,10.5,30.19,WSW,238,2.0,8.0,71,0.00,,---,0.00,VWS V14.01,2013-01-03 13:53:00,
2013-01-03 07:58:00,18.5,10.7,30.19,SW,233,3.0,8.0,71,0.00,,---,0.00,VWS V14.01,2013-01-03 13:58:00,
2013-01-03 08:00:00,18.5,10.7,30.19,WNW,297,1.0,8.0,71,0.00,,---,0.00,VWS V14.01,2013-01-03 14:00:00,
2013-01-03 08:03:00,18.6,11.1,30.19,West,266,3.0,6.0,72,0.00,,---,0.00,VWS V14.01,2013-01-03 14:03:00,
2013-01-03 08:08:00,18.9,11.4,30.19,WSW,238,2.0,6.0,72,0.00,,---,0.00,VWS V14.01,2013-01-03 14:08:00,
2013-01-03 08:13:00,19.1,11.6,30.19,SSW,203,2.0,6.0,72,0.00,,---,0.00,VWS V14.01,2013-01-03 14:13:00,
2013-01-03 08:18:00,19.3,11.8,30.19,SW,233,5.0,8.0,72,0.00,,---,0.00,VWS V14.01,2013-01-03 14:18:00,
2013-01-03 08:23:00,19.6,11.7,30.19,SW,233,3.0,8.0,71,0.00,,---,0.00,VWS V14.01,2013-01-03 14:23:00,
2013-01-03 08:28:00,19.9,12.0,30.19,WSW,257,2.0,8.0,71,0.00,,---,0.00,VWS V14.01,2013-01-03 14:28:00,
2013-01-03 08:30:00,19.9,12.4,30.19,WSW,246,5.0,8.0,72,0.00,,---,0.00,VWS V14.01,2013-01-03 14:30:00,
2013-01-03 08:33:00,20.2,12.3,30.19,SSW,200,3.0,9.0,71,0.00,,---,0.00,VWS V14.01,2013-01-03 14:33:00,
2013-01-03 08:38:00,20.4,12.5,30.19,SW,233,2.0,9.0,71,0.00,,---,0.00,VWS V14.01,2013-01-03 14:38:00,
2013-01-03 08:42:00,20.7,12.8,30.19,SW,217,2.0,9.0,71,0.00,,---,0.00,VWS V14.01,2013-01-03 14:42:00,
2013-01-03 08:47:00,21.1,13.2,30.19,WSW,239,5.0,9.0,71,0.00,,---,0.00,VWS V14.01,2013-01-03 14:47:00,
2013-01-03 08:52:00,21.3,13.4,30.19,WNW,287,2.0,9.0,71,0.00,,---,0.00,VWS V14.01,2013-01-03 14:52:00,
2013-01-03 08:57:00,21.6,13.7,30.20,SW,229,3.0,9.0,71,0.00,,---,0.00,VWS V14.01,2013-01-03 14:57:00,
2013-01-03 09:00:00,21.7,13.8,30.20,WSW,246,2.0,9.0,71,0.00,,---,0.00,VWS V14.01,2013-01-03 15:00:00,
2013-01-03 09:02:00,22.0,13.7,30.20,NW,309,3.0,7.0,70,0.00,,---,0.00,VWS V14.01,2013-01-03 15:02:00,
2013-01-03 09:07:00,22.1,13.8,30.21,West,278,2.0,7.0,70,0.00,,---,0.00,VWS V14.01,2013-01-03 15:07:00,
2013-01-03 09:12:00,22.5,14.5,30.21,SW,225,2.0,7.0,71,0.00,,---,0.00,VWS V14.01,2013-01-03 15:12:00,
2013-01-03 09:17:00,22.9,14.6,30.20,West,281,2.0,7.0,70,0.00,,---,0.00,VWS V14.01,2013-01-03 15:17:00,
2013-01-03 09:22:00,23.0,15.0,30.20,SW,236,2.0,7.0,71,0.00,,---,0.00,VWS V14.01,2013-01-03 15:22:00,
2013-01-03 09:27:00,23.2,15.2,30.20,West,273,3.0,8.0,71,0.00,,---,0.00,VWS V14.01,2013-01-03 15:27:00,
2013-01-03 09:30:00,23.2,15.2,30.20,SW,224,3.0,8.0,71,0.00,,---,0.00,VWS V14.01,2013-01-03 15:30:00,
2013-01-03 09:32:00,23.4,15.4,30.21,WSW,249,3.0,8.0,71,0.00,,---,0.00,VWS V14.01,2013-01-03 15:32:00,
2013-01-03 09:37:00,23.3,15.3,30.21,SW,233,8.0,8.0,71,0.00,,---,0.00,VWS V14.01,2013-01-03 15:37:00,
2013-01-03 09:42:00,23.2,15.2,30.21,West,266,3.0,11.0,71,0.00,,---,0.00,VWS V14.01,2013-01-03 15:42:00,
2013-01-03 09:47:00,23.1,15.1,30.21,West,278,7.0,11.0,71,0.00,,---,0.00,VWS V14.01,2013-01-03 15:47:00,
2013-01-03 09:52:00,23.0,15.0,30.21,SW,224,5.0,12.0,71,0.00,,---,0.00,VWS V14.01,2013-01-03 15:52:00,
2013-01-03 09:57:00,23.0,15.3,30.21,WSW,256,4.0,12.0,72,0.00,,---,0.00,VWS V14.01,2013-01-03 15:57:00,
2013-01-03 10:00:00,23.0,15.3,30.21,SW,232,5.0,12.0,72,0.00,,---,0.00,VWS V14.01,2013-01-03 16:00:00,
2013-01-03 10:02:00,22.8,14.8,30.21,WNW,288,5.0,10.0,71,0.00,,---,0.00,VWS V14.01,2013-01-03 16:02:00,
2013-01-03 10:07:00,22.8,15.1,30.21,WSW,250,3.0,11.0,72,0.00,,---,0.00,VWS V14.01,2013-01-03 16:07:00,
2013-01-03 10:12:00,22.9,15.6,30.21,SW,218,5.0,11.0,73,0.00,,---,0.00,VWS V14.01,2013-01-03 16:12:00,
2013-01-03 10:17:00,22.8,15.1,30.21,West,264,5.0,11.0,72,0.00,,---,0.00,VWS V14.01,2013-01-03 16:17:00,
2013-01-03 10:22:00,22.8,15.1,30.21,SW,236,5.0,11.0,72,0.00,,---,0.00,VWS V14.01,2013-01-03 16:22:00,
2013-01-03 10:27:00,22.9,15.9,30.21,SSW,210,2.0,11.0,74,0.00,,---,0.00,VWS V14.01,2013-01-03 16:27:00,
2013-01-03 10:30:00,22.9,15.9,30.21,SW,219,2.0,11.0,74,0.00,,---,0.00,VWS V14.01,2013-01-03 16:30:00,
2013-01-03 10:32:00,23.0,15.6,30.21,WSW,253,5.0,12.0,73,0.00,,---,0.00,VWS V14.01,2013-01-03 16:32:00,
2013-01-03 10:37:00,22.9,15.6,30.21,WSW,237,5.0,12.0,73,0.00,,---,0.00,VWS V14.01,2013-01-03 16:37:00,
2013-01-03 10:42:00,23.0,16.0,30.21,SW,228,3.0,12.0,74,0.00,,---,0.00,VWS V14.01,2013-01-03 16:42:00,
2013-01-03 10:47:00,23.4,16.4,30.20,West,274,6.0,12.0,74,0.00,,---,0.00,VWS V14.01,2013-01-03 16:47:00,
2013-01-03 10:52:00,23.7,16.6,30.20,West,266,5.0,12.0,74,0.00,,---,0.00,VWS V14.01,2013-01-03 16:52:00,
2013-01-03 10:57:00,24.2,17.1,30.20,WSW,240,8.0,12.0,74,0.00,,---,0.00,VWS V14.01,2013-01-03 16:57:00,
2013-01-03 11:00:00,25.3,19.1,30.18,WNW,288,3.0,11.0,77,0.00,,---,0.00,VWS V14.01,2013-01-03 17:00:00,
2013-01-03 11:02:00,24.4,17.3,30.19,WSW,257,4.0,11.0,74,0.00,,---,0.00,VWS V14.01,2013-01-03 17:02:00,
2013-01-03 11:07:00,24.6,17.8,30.19,WSW,250,2.0,11.0,75,0.00,,---,0.00,VWS V14.01,2013-01-03 17:07:00,
2013-01-03 11:12:00,24.6,17.8,30.19,WNW,283,2.0,11.0,75,0.00,,---,0.00,VWS V14.01,2013-01-03 17:12:00,
2013-01-03 11:17:00,24.8,18.0,30.19,SW,229,5.0,11.0,75,0.00,,---,0.00,VWS V14.01,2013-01-03 17:17:00,
2013-01-03 11:22:00,24.9,18.4,30.19,SSW,212,2.0,11.0,76,0.00,,---,0.00,VWS V14.01,2013-01-03 17:22:00,
2013-01-03 11:27:00,25.0,18.2,30.19,West,281,2.0,11.0,75,0.00,,---,0.00,VWS V14.01,2013-01-03 17:27:00,
2013-01-03 11:30:00,25.0,18.2,30.19,West,259,2.0,11.0,75,0.00,,---,0.00,VWS V14.01,2013-01-03 17:30:00,
2013-01-03 11:32:00,25.1,18.6,30.19,WSW,256,4.0,9.0,76,0.00,,---,0.00,VWS V14.01,2013-01-03 17:32:00,
2013-01-03 11:37:00,25.1,18.6,30.19,West,262,3.0,9.0,76,0.00,,---,0.00,VWS V14.01,2013-01-03 17:37:00,
2013-01-03 11:42:00,25.2,18.7,30.19,WSW,238,4.0,9.0,76,0.00,,---,0.00,VWS V14.01,2013-01-03 17:42:00,
2013-01-03 11:47:00,25.2,18.7,30.18,WSW,240,3.0,11.0,76,0.00,,---,0.00,VWS V14.01,2013-01-03 17:47:00,
2013-01-03 11:52:00,25.2,19.0,30.18,WSW,238,4.0,11.0,77,0.00,,---,0.00,VWS V14.01,2013-01-03 17:52:00,
2013-01-03 11:57:00,25.3,19.1,30.18,SW,228,6.0,11.0,77,0.00,,---,0.00,VWS V14.01,2013-01-03 17:57:00,
2013-01-03 12:00:00,25.3,19.1,30.18,WNW,288,3.0,11.0,77,0.00,,---,0.00,VWS V14.01,2013-01-03 18:00:00,
2013-01-03 12:02:00,25.4,19.5,30.17,SW,222,5.0,5.0,78,0.00,,---,0.00,VWS V14.01,2013-01-03 18:02:00,
2013-01-03 12:30:00,26.4,21.4,30.17,WSW,257,4.0,11.0,81,0.00,,---,0.00,VWS V14.01,2013-01-03 18:30:00,
2013-01-03 12:48:00,25.7,20.4,30.17,WSW,243,7.0,7.0,80,0.00,,---,0.00,VWS V14.01,2013-01-03 18:48:00,
2013-01-03 12:53:00,25.7,20.4,30.17,West,264,1.0,9.0,80,0.00,,---,0.00,VWS V14.01,2013-01-03 18:53:00,
2013-01-03 12:58:00,25.8,20.5,30.17,SW,233,5.0,9.0,80,0.00,,---,0.00,VWS V14.01,2013-01-03 18:58:00,
2013-01-03 13:00:00,25.8,20.5,30.17,West,278,2.0,9.0,80,0.00,,---,0.00,VWS V14.01,2013-01-03 19:00:00,
2013-01-03 13:03:00,25.9,20.9,30.17,West,267,2.0,5.0,81,0.00,,---,0.00,VWS V14.01,2013-01-03 19:03:00,
2013-01-03 13:08:00,26.0,20.7,30.17,SW,236,4.0,8.0,80,0.00,,---,0.00,VWS V14.01,2013-01-03 19:08:00,
2013-01-03 13:13:00,26.1,21.1,30.17,WSW,239,4.0,9.0,81,0.00,,---,0.00,VWS V14.01,2013-01-03 19:13:00,
2013-01-03 13:18:00,26.2,21.2,30.17,WSW,257,3.0,11.0,81,0.00,,---,0.00,VWS V14.01,2013-01-03 19:18:00,
2013-01-03 13:30:00,26.4,21.4,30.17,WSW,257,4.0,11.0,81,0.00,,---,0.00,VWS V14.01,2013-01-03 19:30:00,
2013-01-03 13:55:00,27.0,22.2,30.17,SW,231,9.0,10.0,82,0.00,,---,0.00,VWS V14.01,2013-01-03 19:55:00,
2013-01-03 14:00:00,27.1,22.4,30.17,SW,221,6.0,7.0,82,0.00,,---,0.00,VWS V14.01,2013-01-03 20:00:00,
2013-01-03 14:05:00,27.3,22.5,30.17,WSW,255,7.0,11.0,82,0.00,,---,0.00,VWS V14.01,2013-01-03 20:05:00,
2013-01-03 14:10:00,27.3,22.5,30.17,SW,219,8.0,12.0,82,0.00,,---,0.00,VWS V14.01,2013-01-03 20:10:00,
2013-01-03 14:15:00,27.4,22.6,30.17,SW,231,9.0,12.0,82,0.00,,---,0.00,VWS V14.01,2013-01-03 20:15:00,
2013-01-03 14:20:00,27.4,22.6,30.17,West,262,6.0,12.0,82,0.00,,---,0.00,VWS V14.01,2013-01-03 20:20:00,
2013-01-03 14:25:00,27.5,22.7,30.17,WSW,256,9.0,14.0,82,0.00,,---,0.00,VWS V14.01,2013-01-03 20:25:00,
2013-01-03 14:30:00,27.5,23.0,30.18,West,261,3.0,8.0,83,0.00,,---,0.00,VWS V14.01,2013-01-03 20:30:00,
2013-01-03 14:35:00,27.5,23.0,30.18,West,278,1.0,8.0,83,0.00,,---,0.00,VWS V14.01,2013-01-03 20:35:00,
2013-01-03 14:40:00,27.5,23.0,30.18,West,261,2.0,8.0,83,0.00,,---,0.00,VWS V14.01,2013-01-03 20:40:00,
2013-01-03 14:45:00,27.4,22.9,30.18,West,267,2.0,12.0,83,0.00,,---,0.00,VWS V14.01,2013-01-03 20:45:00,
2013-01-03 14:50:00,27.4,22.9,30.19,WSW,246,2.0,12.0,83,0.00,,---,0.00,VWS V14.01,2013-01-03 20:50:00,
2013-01-03 14:55:00,27.4,23.2,30.19,SW,222,1.0,12.0,84,0.00,,---,0.00,VWS V14.01,2013-01-03 20:55:00,
2013-01-03 15:00:00,27.4,23.2,30.19,SW,233,4.0,6.0,84,0.00,,---,0.00,VWS V14.01,2013-01-03 21:00:00,
2013-01-03 15:05:00,27.4,23.2,30.19,SW,229,3.0,10.0,84,0.00,,---,0.00,VWS V14.01,2013-01-03 21:05:00,
2013-01-03 15:10:00,27.5,23.3,30.19,SSW,207,6.0,10.0,84,0.00,,---,0.00,VWS V14.01,2013-01-03 21:10:00,
2013-01-03 15:15:00,27.4,23.2,30.19,WSW,249,2.0,10.0,84,0.00,,---,0.00,VWS V14.01,2013-01-03 21:15:00,
2013-01-03 15:20:00,27.4,23.2,30.20,WSW,248,5.0,10.0,84,0.00,,---,0.00,VWS V14.01,2013-01-03 21:20:00,
2013-01-03 15:25:00,27.4,23.5,30.20,SW,228,4.0,12.0,85,0.00,,---,0.00,VWS V14.01,2013-01-03 21:25:00,
2013-01-03 15:30:00,27.4,23.5,30.20,WSW,240,2.0,7.0,85,0.00,,---,0.00,VWS V14.01,2013-01-03 21:30:00,
2013-01-03 15:35:00,27.4,23.5,30.20,West,266,2.0,7.0,85,0.00,,---,0.00,VWS V14.01,2013-01-03 21:35:00,
2013-01-03 15:40:00,27.3,23.4,30.20,SW,231,5.0,9.0,85,0.00,,---,0.00,VWS V14.01,2013-01-03 21:40:00,
2013-01-03 15:45:00,27.4,23.8,30.20,SW,233,4.0,11.0,86,0.00,,---,0.00,VWS V14.01,2013-01-03 21:45:00,
2013-01-03 15:50:00,27.3,23.7,30.20,WSW,238,4.0,11.0,86,0.00,,---,0.00,VWS V14.01,2013-01-03 21:50:00,
2013-01-03 15:55:00,27.3,23.7,30.20,SW,224,3.0,11.0,86,0.00,,---,0.00,VWS V14.01,2013-01-03 21:55:00,
2013-01-03 16:00:00,27.4,23.8,30.20,West,261,5.0,10.0,86,0.00,,---,0.00,VWS V14.01,2013-01-03 22:00:00,
2013-01-03 16:05:00,27.4,23.8,30.20,WSW,238,8.0,10.0,86,0.00,,---,0.00,VWS V14.01,2013-01-03 22:05:00,
2013-01-03 16:10:00,27.4,23.8,30.20,SW,228,8.0,10.0,86,0.00,,---,0.00,VWS V14.01,2013-01-03 22:10:00,
2013-01-03 16:15:00,27.5,23.9,30.21,WSW,240,1.0,10.0,86,0.00,,---,0.00,VWS V14.01,2013-01-03 22:15:00,
2013-01-03 16:20:00,27.5,23.9,30.21,WNW,283,2.0,10.0,86,0.00,,---,0.00,VWS V14.01,2013-01-03 22:20:00,
2013-01-03 16:25:00,27.5,23.9,30.21,West,260,2.0,10.0,86,0.00,,---,0.00,VWS V14.01,2013-01-03 22:25:00,
2013-01-03 16:30:00,27.6,24.0,30.21,WSW,240,4.0,6.0,86,0.00,,---,0.00,VWS V14.01,2013-01-03 22:30:00,
2013-01-03 16:35:00,27.6,24.0,30.22,SW,224,6.0,6.0,86,0.00,,---,0.00,VWS V14.01,2013-01-03 22:35:00,
2013-01-03 16:40:00,27.6,24.0,30.22,WSW,243,7.0,8.0,86,0.00,,---,0.00,VWS V14.01,2013-01-03 22:40:00,
2013-01-03 16:45:00,27.6,24.0,30.22,WNW,284,2.0,10.0,86,0.00,,---,0.00,VWS V14.01,2013-01-03 22:45:00,
2013-01-03 16:50:00,27.6,24.2,30.22,SW,229,6.0,10.0,87,0.00,,---,0.00,VWS V14.01,2013-01-03 22:50:00,
2013-01-03 16:55:00,27.6,24.2,30.22,WSW,248,4.0,10.0,87,0.00,,---,0.00,VWS V14.01,2013-01-03 22:55:00,
2013-01-03 17:00:00,27.6,24.2,30.22,WSW,249,4.0,13.0,87,0.00,,---,0.00,VWS V14.01,2013-01-03 23:00:00,
2013-01-03 17:05:00,27.6,24.2,30.22,WSW,253,2.0,13.0,87,0.00,,---,0.00,VWS V14.01,2013-01-03 23:05:00,
2013-01-03 17:10:00,27.6,24.2,30.22,WSW,238,9.0,13.0,87,0.00,,---,0.00,VWS V14.01,2013-01-03 23:10:00,
2013-01-03 17:15:00,27.6,24.2,30.23,WSW,238,3.0,13.0,87,0.00,,---,0.00,VWS V14.01,2013-01-03 23:15:00,
2013-01-03 17:20:00,27.6,24.5,30.23,West,260,2.0,13.0,88,0.00,,---,0.00,VWS V14.01,2013-01-03 23:20:00,
2013-01-03 17:25:00,27.7,24.3,30.23,WSW,240,2.0,13.0,87,0.00,,---,0.00,VWS V14.01,2013-01-03 23:25:00,
2013-01-03 17:30:00,27.7,24.6,30.23,WSW,243,3.0,4.0,88,0.00,,---,0.00,VWS V14.01,2013-01-03 23:30:00,
2013-01-03 17:35:00,27.8,24.7,30.23,WSW,240,6.0,10.0,88,0.00,,---,0.00,VWS V14.01,2013-01-03 23:35:00,
2013-01-03 17:40:00,27.8,24.7,30.23,SW,223,1.0,11.0,88,0.00,,---,0.00,VWS V14.01,2013-01-03 23:40:00,
2013-01-03 17:45:00,27.8,24.7,30.23,WSW,242,7.0,11.0,88,0.00,,---,0.00,VWS V14.01,2013-01-03 23:45:00,
2013-01-03 17:50:00,27.9,24.8,30.24,West,264,3.0,11.0,88,0.00,,---,0.00,VWS V14.01,2013-01-03 23:50:00,
2013-01-03 17:55:00,27.9,24.8,30.24,WSW,252,5.0,11.0,88,0.00,,---,0.00,VWS V14.01,2013-01-03 23:55:00,
2013-01-03 18:00:00,27.9,24.8,30.23,West,259,2.0,6.0,88,0.00,,---,0.00,VWS V14.01,2013-01-04 00:00:00,
2013-01-03 18:05:00,28.0,24.9,30.24,SW,236,3.0,8.0,88,0.00,,---,0.00,VWS V14.01,2013-01-04 00:05:00,
2013-01-03 18:10:00,28.0,24.9,30.23,SW,229,3.0,10.0,88,0.00,,---,0.00,VWS V14.01,2013-01-04 00:10:00,
2013-01-03 18:15:00,28.0,24.9,30.23,WSW,247,5.0,10.0,88,0.00,,---,0.00,VWS V14.01,2013-01-04 00:15:00,
2013-01-03 18:20:00,28.1,25.0,30.24,WSW,237,6.0,10.0,88,0.00,,---,0.00,VWS V14.01,2013-01-04 00:20:00,
2013-01-03 18:25:00,28.1,24.7,30.23,WSW,240,5.0,10.0,87,0.00,,---,0.00,VWS V14.01,2013-01-04 00:25:00,
2013-01-03 18:30:00,28.2,24.8,30.24,SW,219,2.0,7.0,87,0.00,,---,0.00,VWS V14.01,2013-01-04 00:30:00,
2013-01-03 18:35:00,28.2,24.8,30.24,West,262,2.0,9.0,87,0.00,,---,0.00,VWS V14.01,2013-01-04 00:35:00,
2013-01-03 18:40:00,28.2,24.8,30.24,West,260,3.0,9.0,87,0.00,,---,0.00,VWS V14.01,2013-01-04 00:40:00,
2013-01-03 18:45:00,28.3,24.9,30.24,West,269,3.0,9.0,87,0.00,,---,0.00,VWS V14.01,2013-01-04 00:45:00,
2013-01-03 18:50:00,28.3,24.9,30.24,WNW,291,3.0,10.0,87,0.00,,---,0.00,VWS V14.01,2013-01-04 00:50:00,
2013-01-03 18:55:00,28.4,25.0,30.24,West,269,4.0,13.0,87,0.00,,---,0.00,VWS V14.01,2013-01-04 00:55:00,
2013-01-03 19:00:00,28.5,24.9,30.24,SSW,205,4.0,9.0,86,0.00,,---,0.00,VWS V14.01,2013-01-04 01:00:00,
2013-01-03 19:05:00,28.5,24.9,30.24,WNW,284,2.0,10.0,86,0.00,,---,0.00,VWS V14.01,2013-01-04 01:05:00,
2013-01-03 19:10:00,28.6,25.0,30.24,WSW,257,4.0,10.0,86,0.00,,---,0.00,VWS V14.01,2013-01-04 01:10:00,
2013-01-03 19:15:00,28.6,25.0,30.25,West,266,6.0,10.0,86,0.00,,---,0.00,VWS V14.01,2013-01-04 01:15:00,
2013-01-03 19:20:00,28.6,25.0,30.25,WSW,252,2.0,10.0,86,0.00,,---,0.00,VWS V14.01,2013-01-04 01:20:00,
2013-01-03 19:25:00,28.6,25.0,30.25,SW,215,5.0,10.0,86,0.00,,---,0.00,VWS V14.01,2013-01-04 01:25:00,
2013-01-03 19:30:00,28.6,25.0,30.25,SW,219,2.0,9.0,86,0.00,,---,0.00,VWS V14.01,2013-01-04 01:30:00,
2013-01-03 19:35:00,28.6,25.0,30.25,WSW,239,3.0,9.0,86,0.00,,---,0.00,VWS V14.01,2013-01-04 01:35:00,
2013-01-03 19:40:00,28.6,24.7,30.25,West,271,2.0,10.0,85,0.00,,---,0.00,VWS V14.01,2013-01-04 01:40:00,
2013-01-03 19:45:00,28.7,24.8,30.25,WSW,257,1.0,11.0,85,0.00,,---,0.00,VWS V14.01,2013-01-04 01:45:00,
2013-01-03 19:50:00,28.6,24.7,30.25,WSW,249,6.0,11.0,85,0.00,,---,0.00,VWS V14.01,2013-01-04 01:50:00,
2013-01-03 19:55:00,28.6,24.7,30.25,West,263,2.0,11.0,85,0.00,,---,0.00,VWS V14.01,2013-01-04 01:55:00,
2013-01-03 20:00:00,28.6,24.7,30.24,West,277,1.0,8.0,85,0.00,,---,0.00,VWS V14.01,2013-01-04 02:00:00,
2013-01-03 20:05:00,28.6,24.7,30.25,SW,232,4.0,8.0,85,0.00,,---,0.00,VWS V14.01,2013-01-04 02:05:00,
2013-01-03 20:10:00,28.5,24.6,30.25,West,260,3.0,8.0,85,0.00,,---,0.00,VWS V14.01,2013-01-04 02:10:00,
2013-01-03 20:15:00,28.5,24.6,30.25,SW,219,3.0,8.0,85,0.00,,---,0.00,VWS V14.01,2013-01-04 02:15:00,
2013-01-03 20:20:00,28.5,24.3,30.25,WSW,238,1.0,8.0,84,0.00,,---,0.00,VWS V14.01,2013-01-04 02:20:00,
2013-01-03 20:25:00,28.5,24.3,30.25,SW,233,2.0,8.0,84,0.00,,---,0.00,VWS V14.01,2013-01-04 02:25:00,
2013-01-03 20:30:00,28.5,24.3,30.25,WSW,256,5.0,7.0,84,0.00,,---,0.00,VWS V14.01,2013-01-04 02:30:00,
2013-01-03 20:35:00,28.5,24.3,30.25,West,269,4.0,10.0,84,0.00,,---,0.00,VWS V14.01,2013-01-04 02:35:00,
2013-01-03 20:40:00,28.5,24.3,30.25,SW,224,7.0,10.0,84,0.00,,---,0.00,VWS V14.01,2013-01-04 02:40:00,
2013-01-03 20:45:00,28.5,24.3,30.25,WSW,252,1.0,10.0,84,0.00,,---,0.00,VWS V14.01,2013-01-04 02:45:00,
2013-01-03 20:50:00,28.4,24.2,30.25,WSW,257,3.0,10.0,84,0.00,,---,0.00,VWS V14.01,2013-01-04 02:50:00,
2013-01-03 20:55:00,28.4,24.2,30.25,West,280,3.0,10.0,84,0.00,,---,0.00,VWS V14.01,2013-01-04 02:55:00,
2013-01-03 21:00:00,28.4,24.2,30.25,WNW,291,6.0,10.0,84,0.00,,---,0.00,VWS V14.01,2013-01-04 03:00:00,
2013-01-03 21:05:00,28.4,23.9,30.25,West,270,2.0,10.0,83,0.00,,---,0.00,VWS V14.01,2013-01-04 03:05:00,
2013-01-03 21:10:00,28.4,23.9,30.25,SW,228,1.0,10.0,83,0.00,,---,0.00,VWS V14.01,2013-01-04 03:10:00,
2013-01-03 21:15:00,28.4,23.9,30.25,WSW,240,1.0,10.0,83,0.00,,---,0.00,VWS V14.01,2013-01-04 03:15:00,
2013-01-03 21:20:00,28.4,23.9,30.25,WSW,240,3.0,10.0,83,0.00,,---,0.00,VWS V14.01,2013-01-04 03:20:00,
2013-01-03 21:25:00,28.3,23.8,30.25,SW,233,2.0,10.0,83,0.00,,---,0.00,VWS V14.01,2013-01-04 03:25:00,
2013-01-03 21:30:00,28.3,23.8,30.25,West,277,1.0,6.0,83,0.00,,---,0.00,VWS V14.01,2013-01-04 03:30:00,
2013-01-03 21:35:00,28.3,23.8,30.25,West,277,1.0,6.0,83,0.00,,---,0.00,VWS V14.01,2013-01-04 03:35:00,
2013-01-03 21:40:00,28.3,23.8,30.25,SW,225,3.0,7.0,83,0.00,,---,0.00,VWS V14.01,2013-01-04 03:40:00,
2013-01-03 21:45:00,28.3,23.5,30.25,WSW,242,1.0,8.0,82,0.00,,---,0.00,VWS V14.01,2013-01-04 03:45:00,
2013-01-03 21:50:00,28.3,23.5,30.25,West,270,3.0,8.0,82,0.00,,---,0.00,VWS V14.01,2013-01-04 03:50:00,
2013-01-03 21:55:00,28.3,23.5,30.25,WSW,248,1.0,8.0,82,0.00,,---,0.00,VWS V14.01,2013-01-04 03:55:00,
2013-01-03 22:00:00,28.3,23.5,30.25,WSW,257,3.0,4.0,82,0.00,,---,0.00,VWS V14.01,2013-01-04 04:00:00,
2013-01-03 22:05:00,28.2,23.1,30.25,West,259,2.0,6.0,81,0.00,,---,0.00,VWS V14.01,2013-01-04 04:05:00,
2013-01-03 22:10:00,28.2,23.1,30.25,West,275,1.0,7.0,81,0.00,,---,0.00,VWS V14.01,2013-01-04 04:10:00,
2013-01-03 22:15:00,28.2,23.1,30.25,SW,217,5.0,7.0,81,0.00,,---,0.00,VWS V14.01,2013-01-04 04:15:00,
2013-01-03 22:20:00,28.3,23.2,30.25,SW,222,2.0,9.0,81,0.00,,---,0.00,VWS V14.01,2013-01-04 04:20:00,
2013-01-03 22:25:00,28.2,22.8,30.25,West,271,4.0,9.0,80,0.00,,---,0.00,VWS V14.01,2013-01-04 04:25:00,
2013-01-03 22:30:00,28.3,22.9,30.25,West,270,2.0,6.0,80,0.00,,---,0.00,VWS V14.01,2013-01-04 04:30:00,
2013-01-03 22:35:00,28.2,22.8,30.25,WSW,255,2.0,6.0,80,0.00,,---,0.00,VWS V14.01,2013-01-04 04:35:00,
2013-01-03 22:40:00,28.2,22.8,30.25,WNW,291,5.0,7.0,80,0.00,,---,0.00,VWS V14.01,2013-01-04 04:40:00,
2013-01-03 22:45:00,28.2,22.5,30.25,West,262,2.0,8.0,79,0.00,,---,0.00,VWS V14.01,2013-01-04 04:45:00,
2013-01-03 22:50:00,28.2,22.5,30.25,WSW,252,1.0,8.0,79,0.00,,---,0.00,VWS V14.01,2013-01-04 04:50:00,
2013-01-03 22:55:00,28.2,22.5,30.24,SW,228,2.0,8.0,79,0.00,,---,0.00,VWS V14.01,2013-01-04 04:55:00,
2013-01-03 23:00:00,28.2,22.5,30.24,WNW,285,2.0,5.0,79,0.00,,---,0.00,VWS V14.01,2013-01-04 05:00:00,
2013-01-03 23:01:00,28.2,22.5,30.24,WSW,243,1.0,5.0,79,0.00,,---,0.00,VWS V14.01,2013-01-04 05:01:00,
2013-01-03 23:02:00,28.2,22.5,30.24,WSW,245,5.0,6.0,79,0.00,,---,0.00,VWS V14.01,2013-01-04 05:02:00,
2013-01-03 23:07:00,28.1,22.1,30.24,SSW,197,3.0,6.0,78,0.00,,---,0.00,VWS V14.01,2013-01-04 05:07:00,
2013-01-03 23:12:00,28.1,22.1,30.24,WNW,283,2.0,6.0,78,0.00,,---,0.00,VWS V14.01,2013-01-04 05:12:00,
2013-01-03 23:17:00,28.1,22.1,30.24,West,260,4.0,7.0,78,0.00,,---,0.00,VWS V14.01,2013-01-04 05:17:00,
2013-01-03 23:22:00,28.1,22.1,30.24,WSW,252,2.0,9.0,78,0.00,,---,0.00,VWS V14.01,2013-01-04 05:22:00,
2013-01-03 23:27:00,28.1,22.1,30.24,WSW,255,3.0,9.0,78,0.00,,---,0.00,VWS V14.01,2013-01-04 05:27:00,
2013-01-03 23:30:00,28.1,22.1,30.24,SW,226,7.0,9.0,78,0.00,,---,0.00,VWS V14.01,2013-01-04 05:30:00,
2013-01-03 23:32:00,28.1,22.1,30.23,SW,224,7.0,9.0,78,0.00,,---,0.00,VWS V14.01,2013-01-04 05:32:00,
2013-01-03 23:37:00,28.1,22.1,30.23,WSW,240,5.0,9.0,78,0.00,,---,0.00,VWS V14.01,2013-01-04 05:37:00,
2013-01-03 23:42:00,28.1,22.1,30.23,WSW,239,3.0,11.0,78,0.00,,---,0.00,VWS V14.01,2013-01-04 05:42:00,
2013-01-03 23:47:00,28.0,22.0,30.23,WSW,253,3.0,11.0,78,0.00,,---,0.00,VWS V14.01,2013-01-04 05:47:00,
2013-01-03 23:52:00,28.0,22.0,30.23,SW,227,2.0,11.0,78,0.00,,---,0.00,VWS V14.01,2013-01-04 05:52:00,
2013-01-03 23:57:00,27.9,21.9,30.23,SW,233,7.0,11.0,78,0.00,,---,0.00,VWS V14.01,2013-01-04 05:57:00,